CYOWCYFB

Guest
Details From CYOW - Ottawa Macdonald Cartier Intl
To CYFB - Iqaluit
Flight Number -
Tags Generated
Created
Modified
Stats Distance 1,134 nm / 2,101 km
Max Altitude 0 ft / 0 m
Waypoints 4
Social Downloads 3
Likes 0
Share VATSIM

Download

Looking for another format? Having issues loading an existing format? Contact us
Advertisement - Login to hide

Notes

Generated

Route

CYOW YAS YFY CYFB

ID Type Via Altitude Latitude Longitude Leg Dist Tot Dist Heading (true) Name
O CYOW APT - 0 ft / 0 m 45.32611˚ -75.68903˚ - 0 nm - -
YAS NDB - 0 ft / 0 m 60.02556˚ -70.00472˚ 905 nm 905 nm 11° / 16° KANGIRSUK NDB
YFY NDB - 0 ft / 0 m 63.73333˚ -68.54806˚ 226 nm 1132 nm 10° / 11° FROBAY NDB
O CYFB APT - 0 ft / 0 m 63.76497˚ -68.57398˚ 2 nm 1134 nm 340° / 340° -

Altitude Profile

Advertisement - Login to hide

Weather


0- 5 10 15 20 25 30 35+ Temperature / ° C

Clouds and Precipitation
Forecast for 2018-05-27 12:00 UTC. Updated 5 hours ago

Ground ~20,000 ft ~40,000 ft Winds

CYOW

Details ICAO CYOW (YOW)
Name Ottawa Macdonald Cartier Intl
Region Canada
Timezone America/Toronto (UTC-4.0)
Stats Elevation 374 ft / 114 m (AMSL)
Location 45.322817° -75.671438°
Runways 3
Magnetic Variation 13.223° W

METAR

CYOW 271600Z 07008KT 15SM BKN096 18/12 A3000 RMK AC7 SLP162 DENSITY ALT 700FT

Decode

TAF

TAF TAF CYOW 271438Z 2715/2812 07007KT P6SM BKN080 FM271600 VRB03KT P6SM SCT040 TEMPO 2718/2723 15010KT P6SM -SHRA BKN040 PROB30 2721/2723 VRB15G25KT 2SM TSRA BR BKN020 OVC090CB FM280000 14012KT P6SM SCT090 BKN180 FM280600 16008KT P6SM BKN020 OVC080 RMK NXT FCST BY 271800Z

Decode

Departure Runways

ID Width Length Bearing (true) Bearing (mag) Surface Threshold Offset Overrun Length
04 75 ft / 23 m 3,304 ft / 1,007 m 25.50° 38.72° Asphalt 0 ft / 0 m 0 ft / 0 m
07 200 ft / 61 m 8,011 ft / 2,442 m 57.16° 70.38° Asphalt 0 ft / 0 m 150 ft / 46 m
14 200 ft / 61 m 9,978 ft / 3,041 m 126.44° 139.66° Asphalt 0 ft / 0 m 150 ft / 46 m
22 75 ft / 23 m 3,304 ft / 1,007 m 205.50° 218.72° Asphalt 0 ft / 0 m 0 ft / 0 m
25 200 ft / 61 m 8,011 ft / 2,442 m 237.18° 250.40° Asphalt 0 ft / 0 m 155 ft / 47 m
32 200 ft / 61 m 9,978 ft / 3,041 m 306.46° 319.68° Asphalt 0 ft / 0 m 150 ft / 46 m

CYFB

Details ICAO CYFB (YFB)
Name Iqaluit
Region Canada
Timezone America/Iqaluit (UTC-4.0)
Stats Elevation 110 ft / 34 m (AMSL)
Location 63.756565° -68.556058°
Runways 1
Magnetic Variation 27.369° W

METAR

CYFB 271600Z 15012KT 30SM OVC024 M03/M06 A3003 RMK SC8 SLP174

Decode

TAF

TAF CYFB 271138Z 2712/2812 15005KT P6SM OVC025 TEMPO 2712/2717 P6SM -SN OVC015 FM271700 15010KT P6SM BKN020 OVC100 TEMPO 2717/2724 3SM -SN OVC012 RMK NXT FCST BY 271800Z

Decode

Destination Runways

ID Width Length Bearing (true) Bearing (mag) Surface Threshold Offset Overrun Length
17 200 ft / 61 m 8,605 ft / 2,623 m 135.58° 162.95° Asphalt 0 ft / 0 m 210 ft / 64 m
35 200 ft / 61 m 8,605 ft / 2,623 m 315.62° 342.99° Asphalt 0 ft / 0 m 243 ft / 74 m

Popular Alternatives